Terminal Aerodrome Forecast
Issued by NWS

Home | Current Version | Previous Version | Text Only | Print | Product List | Glossary On
Versions: 1 2 3 4 5 6 7 8 9 10 11 12 13 14 15 16 17 18 19 20 21 22
000
FTUS41 KPBZ 221002 AAA
TAFDUJ
TAF AMD
KDUJ 221002Z 2210/2306 25005KT P6SM SKC
      TEMPO 2210/2211 5SM BR
     FM221100 26010KT P6SM VCSH BKN060
     FM221600 29015G25KT P6SM SCT070
     FM222300 32008KT P6SM SKC=

USA.gov is the U.S. government's official web portal to all federal, state and local government web resources and services.